Time;durP1;ratioP1;P1;durP2;ratioP2;P2;SDS_P1;SDS_P2;PMS_P1;PMS_P2;Temp;Humidity;BMP_temperature;BMP_pressure;BME280_temperature;BME280_humidity;BME280_pressure;Samples;Min_cycle;Max_cycle;Signal;HPM_P1;HPM_P2
2022/09/06 00:00:30;;;;;;;;;;;;;;;11.07;100.00;101486.28;3058750;19;805;-46
2022/09/06 00:01:31;;;;;;;;;;;;;;;11.05;100.00;101483.69;3059163;19;899;-47
2022/09/06 00:02:36;;;;;;;;;;;;;;;11.03;100.00;101482.88;3058564;19;1842;-49
2022/09/06 00:03:38;;;;;;;;;;;;;;;10.99;100.00;101475.94;3058929;19;1035;-48
2022/09/06 00:04:43;;;;;;;;;;;;;;;10.99;100.00;101483.13;3059513;19;956;-48
2022/09/06 00:05:45;;;;;;;;;;;;;;;10.96;100.00;101478.78;3059357;19;865;-48
2022/09/06 00:06:49;;;;;;;;;;;;;;;10.94;100.00;101479.78;3059014;19;1027;-48
2022/09/06 00:07:51;;;;;;;;;;;;;;;10.92;100.00;101485.19;3059224;19;1070;-46
2022/09/06 00:08:55;;;;;;;;;;;;;;;10.91;100.00;101482.59;3059196;19;1003;-47
2022/09/06 00:09:57;;;;;;;;;;;;;;;10.91;100.00;101487.94;3058910;19;916;-47
2022/09/06 00:11:02;;;;;;;;;;;;;;;10.90;100.00;101488.88;3059432;19;943;-48
2022/09/06 00:12:04;;;;;;;;;;;;;;;10.89;100.00;101488.00;3059015;19;878;-48
2022/09/06 00:13:10;;;;;;;;;;;;;;;10.86;100.00;101481.97;3058461;19;1180;-46
2022/09/06 00:14:11;;;;;;;;;;;;;;;10.84;100.00;101484.69;3058421;19;981;-45
2022/09/06 00:15:16;;;;;;;;;;;;;;;10.80;100.00;101483.09;3059520;19;935;-49
2022/09/06 00:16:19;;;;;;;;;;;;;;;10.76;100.00;101481.50;3058833;19;1051;-48
2022/09/06 00:17:24;;;;;;;;;;;;;;;10.74;100.00;101483.41;3059050;19;961;-46
2022/09/06 00:18:26;;;;;;;;;;;;;;;10.73;100.00;101487.00;3058924;19;1818;-48
2022/09/06 00:19:30;;;;;;;;;;;;;;;10.71;100.00;101488.88;3059078;19;952;-46
2022/09/06 00:20:33;;;;;;;;;;;;;;;10.70;100.00;101488.00;3059296;19;810;-49
2022/09/06 00:21:37;;;;;;;;;;;;;;;10.68;100.00;101486.34;3059098;19;869;-47
2022/09/06 00:22:39;;;;;;;;;;;;;;;10.66;100.00;101480.19;3057221;19;1864;-48
2022/09/06 00:23:44;;;;;;;;;;;;;;;10.63;100.00;101486.53;3059218;19;1676;-45
2022/09/06 00:24:46;;;;;;;;;;;;;;;10.61;100.00;101487.56;3058868;19;891;-47
2022/09/06 00:25:50;;;;;;;;;;;;;;;10.60;100.00;101485.84;3058922;19;872;-49
2022/09/06 00:26:52;;;;;;;;;;;;;;;10.57;100.00;101475.28;3059068;19;917;-48
2022/09/06 00:27:57;;;;;;;;;;;;;;;10.56;100.00;101481.56;3059224;19;967;-48
2022/09/06 00:28:59;;;;;;;;;;;;;;;10.53;100.00;101479.03;3058851;19;952;-47
2022/09/06 00:30:06;;;;;;;;;;;;;;;10.51;100.00;101481.75;3059077;19;1031;-50
2022/09/06 00:31:08;;;;;;;;;;;;;;;10.49;100.00;101483.66;3059389;19;853;-48
2022/09/06 00:32:13;;;;;;;;;;;;;;;10.49;100.00;101482.78;3058797;19;1417;-47
2022/09/06 00:33:14;;;;;;;;;;;;;;;10.48;100.00;101476.56;3058720;19;1235;-48
2022/09/06 00:34:19;;;;;;;;;;;;;;;10.48;100.00;101481.06;3059106;19;873;-50
2022/09/06 00:35:23;;;;;;;;;;;;;;;10.48;100.00;101481.06;3057700;19;1011;-48
2022/09/06 00:36:27;;;;;;;;;;;;;;;10.46;100.00;101483.78;3058416;19;1016;-48
2022/09/06 00:37:29;;;;;;;;;;;;;;;10.44;100.00;101485.66;3058709;19;985;-47
2022/09/06 00:38:34;;;;;;;;;;;;;;;10.42;100.00;101477.72;3058902;19;932;-46
2022/09/06 00:39:36;;;;;;;;;;;;;;;10.41;100.00;101475.97;3058831;19;1018;-47
2022/09/06 00:40:40;;;;;;;;;;;;;;;10.38;100.00;101476.13;3058199;19;971;-45
2022/09/06 00:41:42;;;;;;;;;;;;;;;10.37;100.00;101484.22;3057361;19;1043;-47
2022/09/06 00:42:47;;;;;;;;;;;;;;;10.39;100.00;101479.63;3058011;19;1857;-45
2022/09/06 00:43:49;;;;;;;;;;;;;;;10.38;100.00;101476.13;3057842;19;973;-47
2022/09/06 00:44:53;;;;;;;;;;;;;;;10.37;100.00;101479.72;3058961;19;877;-45
2022/09/06 00:45:58;;;;;;;;;;;;;;;10.34;100.00;101479.88;3058554;19;980;-47
2022/09/06 00:47:00;;;;;;;;;;;;;;;10.33;100.00;101478.13;3058093;19;888;-48
2022/09/06 00:48:04;;;;;;;;;;;;;;;10.30;100.00;101478.25;3058086;19;1760;-48
2022/09/06 00:49:08;;;;;;;;;;;;;;;10.30;100.00;101478.25;3057912;19;1214;-47
2022/09/06 00:50:13;;;;;;;;;;;;;;;10.31;100.00;101481.78;3057945;19;1657;-49
2022/09/06 00:51:16;;;;;;;;;;;;;;;10.31;100.00;101480.00;3059440;19;2163;-45
2022/09/06 00:52:20;;;;;;;;;;;;;;;10.29;100.00;101476.53;3057668;19;866;-45
2022/09/06 00:53:22;;;;;;;;;;;;;;;10.30;100.00;101480.94;3058035;19;987;-48
2022/09/06 00:54:27;;;;;;;;;;;;;;;10.29;100.00;101476.53;3057707;19;963;-45
2022/09/06 00:55:28;;;;;;;;;;;;;;;10.28;100.00;101490.78;3057809;19;980;-49
2022/09/06 00:56:33;;;;;;;;;;;;;;;10.26;100.00;101481.16;3057921;19;869;-47
2022/09/06 00:57:35;;;;;;;;;;;;;;;10.24;100.00;101488.34;3057599;19;917;-47
2022/09/06 00:58:40;;;;;;;;;;;;;;;10.23;100.00;101479.47;3058020;19;972;-48
2022/09/06 00:59:42;;;;;;;;;;;;;;;10.24;100.00;101483.03;3058946;19;976;-48
2022/09/06 01:00:46;;;;;;;;;;;;;;;10.23;100.00;101482.16;3058674;19;1020;-48
2022/09/06 01:01:48;;;;;;;;;;;;;;;10.25;100.00;101472.28;3058656;19;908;-48
2022/09/06 01:02:53;;;;;;;;;;;;;;;10.25;100.00;101480.28;3058345;19;1845;-49
2022/09/06 01:03:55;;;;;;;;;;;;;;;10.25;100.00;101480.28;3057339;19;780;-48
2022/09/06 01:05:00;;;;;;;;;;;;;;;10.26;100.00;101471.34;3057439;19;864;-46
2022/09/06 01:06:23;;;;;;;;;;;;;;;10.27;100.00;101466.84;3057659;19;971;-48
2022/09/06 01:07:43;;;;;;;;;;;;;;;10.29;100.00;101468.53;3057735;19;979;-49
2022/09/06 01:08:59;;;;;;;;;;;;;;;10.31;100.00;101458.66;3057505;19;904;-45
2022/09/06 01:10:22;;;;;;;;;;;;;;;10.31;100.00;101466.66;3057882;19;1083;-46
2022/09/06 01:11:28;;;;;;;;;;;;;;;10.33;100.00;101461.25;3058573;19;960;-45
2022/09/06 01:12:51;;;;;;;;;;;;;;;10.33;100.00;101467.47;3057690;19;890;-50
2022/09/06 01:13:53;;;;;;;;;;;;;;;10.27;100.00;101465.03;3057849;19;984;-48
2022/09/06 01:15:07;;;;;;;;;;;;;;;10.25;100.00;101469.63;3058446;19;1152;-49
2022/09/06 01:16:18;;;;;;;;;;;;;;;10.27;100.00;101465.03;3058711;19;935;-48
2022/09/06 01:17:25;;;;;;;;;;;;;;;10.25;100.00;101469.63;3058230;19;956;-47
2022/09/06 01:18:31;;;;;;;;;;;;;;;10.24;100.00;101465.22;3058406;19;1178;-45
2022/09/06 01:19:41;;;;;;;;;;;;;;;10.23;100.00;101465.28;3057000;19;1256;-49
2022/09/06 01:20:49;;;;;;;;;;;;;;;10.22;100.00;101464.41;3057573;19;907;-49
2022/09/06 01:21:53;;;;;;;;;;;;;;;10.20;100.00;101473.41;3058560;19;1181;-46
2022/09/06 01:23:14;;;;;;;;;;;;;;;10.18;100.00;101477.91;3058042;19;1856;-49
2022/09/06 01:24:18;;;;;;;;;;;;;;;10.13;100.00;101463.91;3058224;19;956;-47
2022/09/06 01:25:39;;;;;;;;;;;;;;;10.13;100.00;101470.13;3058165;19;892;-45
2022/09/06 01:26:55;;;;;;;;;;;;;;;10.13;100.00;101467.47;3058193;19;917;-47
2022/09/06 01:28:09;;;;;;;;;;;;;;;10.08;100.00;101467.66;3058761;19;928;-47
2022/09/06 01:29:25;;;;;;;;;;;;;;;10.08;100.00;101467.66;3058179;19;853;-47
2022/09/06 01:30:27;;;;;;;;;;;;;;;10.06;100.00;101468.63;3057565;19;1039;-48
2022/09/06 01:31:36;;;;;;;;;;;;;;;10.06;100.00;101473.97;3057235;19;990;-49
2022/09/06 01:32:57;;;;;;;;;;;;;;;10.04;100.00;101473.16;3057351;19;1083;-47
2022/09/06 01:34:07;;;;;;;;;;;;;;;10.01;100.00;101470.66;3057151;19;1243;-48
2022/09/06 01:35:31;;;;;;;;;;;;;;;9.99;100.00;101469.84;3057433;19;1096;-48
2022/09/06 01:36:38;;;;;;;;;;;;;;;9.97;100.00;101477.91;3058177;19;915;-47
2022/09/06 01:38:02;;;;;;;;;;;;;;;9.96;100.00;101472.66;3056959;19;1020;-48
2022/09/06 01:39:04;;;;;;;;;;;;;;;9.93;100.00;101473.63;3057322;19;995;-46
2022/09/06 01:40:09;;;;;;;;;;;;;;;9.92;100.00;101481.69;3056986;19;995;-49
2022/09/06 01:41:11;;;;;;;;;;;;;;;9.89;100.00;101471.19;3057998;19;1100;-46
2022/09/06 01:42:25;;;;;;;;;;;;;;;9.86;100.00;101472.19;3057783;19;1522;-49
2022/09/06 01:43:33;;;;;;;;;;;;;;;9.82;100.00;101475.91;3057556;19;1864;-46
2022/09/06 01:44:35;;;;;;;;;;;;;;;9.79;100.00;101470.69;3057257;19;992;-46
2022/09/06 01:45:59;;;;;;;;;;;;;;;9.77;100.00;101471.72;3057114;19;1007;-46
2022/09/06 01:47:04;;;;;;;;;;;;;;;9.74;100.00;101467.38;3058130;19;972;-47
2022/09/06 01:48:26;;;;;;;;;;;;;;;9.70;100.00;101471.09;3057445;19;984;-47
2022/09/06 01:49:33;;;;;;;;;;;;;;;9.66;100.00;101475.66;3057885;19;949;-48
2022/09/06 01:50:55;;;;;;;;;;;;;;;9.63;100.00;101470.50;3057074;19;881;-46
2022/09/06 01:52:18;;;;;;;;;;;;;;;9.60;100.00;101469.75;3056849;19;960;-47
2022/09/06 01:53:39;;;;;;;;;;;;;;;9.55;100.00;101477.91;3057949;19;1045;-46
2022/09/06 01:55:02;;;;;;;;;;;;;;;9.51;100.00;101473.66;3057776;19;1229;-46
2022/09/06 01:56:07;;;;;;;;;;;;;;;9.45;100.00;101471.25;3057912;19;1007;-49
2022/09/06 01:57:19;;;;;;;;;;;;;;;9.40;100.00;101467.91;3056972;19;944;-49
2022/09/06 01:58:38;;;;;;;;;;;;;;;9.36;100.00;101471.63;3056846;19;1007;-46
2022/09/06 01:59:47;;;;;;;;;;;;;;;9.31;100.00;101473.59;3056787;19;1785;-46
2022/09/06 02:00:49;;;;;;;;;;;;;;;9.27;100.00;101472.88;3056547;19;1011;-48
2022/09/06 02:01:59;;;;;;;;;;;;;;;9.22;100.00;101468.66;3057107;19;845;-48
2022/09/06 02:03:11;;;;;;;;;;;;;;;9.18;100.00;101469.69;3057388;19;1262;-47
2022/09/06 02:04:24;;;;;;;;;;;;;;;9.15;100.00;101461.84;3057034;19;1855;-46
2022/09/06 02:05:37;;;;;;;;;;;;;;;9.11;100.00;101465.56;3056976;19;1036;-48
2022/09/06 02:06:41;;;;;;;;;;;;;;;9.09;100.00;101460.28;3056976;19;884;-48
2022/09/06 02:07:46;;;;;;;;;;;;;;;9.08;100.00;101463.00;3056823;19;1012;-46
2022/09/06 02:08:49;;;;;;;;;;;;;;;9.06;100.00;101463.06;3056679;19;820;-48
2022/09/06 02:09:57;;;;;;;;;;;;;;;9.03;100.00;101461.41;3056883;19;912;-46
2022/09/06 02:11:03;;;;;;;;;;;;;;;9.01;100.00;101460.59;3056686;19;821;-48
2022/09/06 02:12:08;;;;;;;;;;;;;;;8.97;100.00;101453.66;3056929;19;873;-48
2022/09/06 02:13:10;;;;;;;;;;;;;;;8.96;100.00;101462.56;3056610;19;880;-46
2022/09/06 02:14:18;;;;;;;;;;;;;;;8.92;100.00;101454.78;3056706;19;952;-48
2022/09/06 02:15:22;;;;;;;;;;;;;;;8.90;100.00;101462.81;3056333;19;1031;-45
2022/09/06 02:16:28;;;;;;;;;;;;;;;8.87;100.00;101457.59;3056817;19;870;-47
2022/09/06 02:17:31;;;;;;;;;;;;;;;8.86;100.00;101458.53;3056362;19;1021;-48
2022/09/06 02:18:38;;;;;;;;;;;;;;;8.85;100.00;101453.25;3056647;19;977;-47
2022/09/06 02:20:11;;;;;;;;;;;;;;;8.83;100.00;101455.13;3056459;19;944;-47
2022/09/06 02:21:13;;;;;;;;;;;;;;;8.79;100.00;101459.72;3056235;19;1673;-46
2022/09/06 02:22:18;;;;;;;;;;;;;;;8.77;100.00;101458.91;3057672;19;858;-47
2022/09/06 02:23:24;;;;;;;;;;;;;;;8.75;100.00;101446.56;3056680;19;1043;-47
2022/09/06 02:24:29;;;;;;;;;;;;;;;8.73;100.00;101456.41;3055522;19;1846;-46
2022/09/06 02:25:34;;;;;;;;;;;;;;;8.71;100.00;101451.13;3056444;19;837;-47
2022/09/06 02:26:40;;;;;;;;;;;;;;;8.69;100.00;101461.00;3056605;19;1606;-45
2022/09/06 02:27:42;;;;;;;;;;;;;;;8.64;100.00;101454.97;3056542;19;1319;-48
2022/09/06 02:28:46;;;;;;;;;;;;;;;8.64;100.00;101454.97;3057457;19;1036;-47
2022/09/06 02:29:48;;;;;;;;;;;;;;;8.60;100.00;101453.34;3056553;19;920;-48
2022/09/06 02:30:54;;;;;;;;;;;;;;;8.58;100.00;101449.88;3056162;19;813;-48
2022/09/06 02:32:13;;;;;;;;;;;;;;;8.55;100.00;101460.66;3056247;19;1028;-45
2022/09/06 02:33:17;;;;;;;;;;;;;;;8.52;100.00;101458.97;3056861;19;889;-47
2022/09/06 02:34:22;;;;;;;;;;;;;;;8.50;100.00;101458.16;3056359;19;956;-46
2022/09/06 02:35:23;;;;;;;;;;;;;;;8.48;100.00;101448.47;3056418;19;885;-48
2022/09/06 02:36:28;;;;;;;;;;;;;;;8.47;100.00;101463.56;3056077;19;949;-47
2022/09/06 02:37:30;;;;;;;;;;;;;;;8.45;100.00;101457.44;3056362;19;1063;-47
2022/09/06 02:38:34;;;;;;;;;;;;;;;8.44;100.00;101462.84;3056477;19;1547;-48
2022/09/06 02:39:39;;;;;;;;;;;;;;;8.42;100.00;101460.25;3057234;19;1023;-47
2022/09/06 02:40:44;;;;;;;;;;;;;;;8.41;100.00;101449.66;3057346;19;881;-47
2022/09/06 02:41:46;;;;;;;;;;;;;;;8.42;100.00;101456.72;3055537;19;1200;-46
2022/09/06 02:42:52;;;;;;;;;;;;;;;8.41;100.00;101453.19;3056152;19;1028;-48
2022/09/06 02:43:54;;;;;;;;;;;;;;;8.41;100.00;101454.97;3055996;19;1392;-49
2022/09/06 02:44:58;;;;;;;;;;;;;;;8.41;100.00;101457.63;3056854;19;1867;-46
2022/09/06 02:46:00;;;;;;;;;;;;;;;8.42;100.00;101454.91;3056237;19;965;-48
2022/09/06 02:47:05;;;;;;;;;;;;;;;8.44;100.00;101454.88;3057538;19;817;-48
2022/09/06 02:48:06;;;;;;;;;;;;;;;8.45;100.00;101459.25;3057039;19;940;-46
2022/09/06 02:49:11;;;;;;;;;;;;;;;8.44;100.00;101452.19;3057497;19;927;-48
2022/09/06 02:50:14;;;;;;;;;;;;;;;8.46;100.00;101458.31;3056904;19;896;-49
2022/09/06 02:51:19;;;;;;;;;;;;;;;8.47;100.00;101449.41;3057262;19;952;-47
2022/09/06 02:52:21;;;;;;;;;;;;;;;8.49;100.00;101455.53;3057058;19;987;-47
2022/09/06 02:53:25;;;;;;;;;;;;;;;8.51;100.00;101453.69;3057241;19;1007;-47
2022/09/06 02:54:28;;;;;;;;;;;;;;;8.53;100.00;101457.16;3057210;19;912;-48
2022/09/06 02:55:32;;;;;;;;;;;;;;;8.53;100.00;101462.50;3057071;19;987;-49
2022/09/06 02:56:35;;;;;;;;;;;;;;;8.55;100.00;101458.84;3056743;19;1047;-48
2022/09/06 02:57:39;;;;;;;;;;;;;;;8.55;100.00;101450.00;3056542;19;892;-46
2022/09/06 02:58:41;;;;;;;;;;;;;;;8.55;100.00;101450.00;3056094;19;999;-46
2022/09/06 02:59:46;;;;;;;;;;;;;;;8.56;100.00;101455.28;3056327;19;963;-46
2022/09/06 03:00:48;;;;;;;;;;;;;;;8.60;100.00;101448.00;3055772;19;924;-46
2022/09/06 03:01:53;;;;;;;;;;;;;;;8.59;100.00;101448.94;3057339;19;908;-47
2022/09/06 03:02:55;;;;;;;;;;;;;;;8.60;100.00;101437.38;3056874;19;944;-45
2022/09/06 03:03:59;;;;;;;;;;;;;;;8.61;100.00;101439.13;3057278;19;1236;-46
2022/09/06 03:05:01;;;;;;;;;;;;;;;8.62;100.00;101441.72;3056160;19;1857;-48
2022/09/06 03:06:06;;;;;;;;;;;;;;;8.63;100.00;101437.25;3057203;19;897;-46
2022/09/06 03:07:08;;;;;;;;;;;;;;;8.62;100.00;101446.16;3056705;19;936;-47
2022/09/06 03:08:12;;;;;;;;;;;;;;;8.63;100.00;101442.59;3057094;19;887;-45
2022/09/06 03:09:14;;;;;;;;;;;;;;;8.61;100.00;101445.31;3056811;19;943;-46
2022/09/06 03:10:19;;;;;;;;;;;;;;;8.61;100.00;101439.97;3057226;19;995;-49
2022/09/06 03:11:20;;;;;;;;;;;;;;;8.60;100.00;101435.59;3056795;19;873;-47
2022/09/06 03:12:25;;;;;;;;;;;;;;;8.59;100.00;101439.16;3057091;19;928;-48
2022/09/06 03:13:27;;;;;;;;;;;;;;;8.59;100.00;101435.63;3056828;19;777;-48
2022/09/06 03:14:31;;;;;;;;;;;;;;;8.59;100.00;101438.28;3056973;19;1711;-47
2022/09/06 03:15:33;;;;;;;;;;;;;;;8.60;100.00;101437.38;3056136;19;880;-46
2022/09/06 03:16:38;;;;;;;;;;;;;;;8.61;100.00;101434.66;3056860;19;925;-46
2022/09/06 03:17:40;;;;;;;;;;;;;;;8.60;100.00;101437.38;3056649;19;944;-45
2022/09/06 03:18:45;;;;;;;;;;;;;;;8.60;100.00;101440.03;3056783;19;908;-49
2022/09/06 03:19:47;;;;;;;;;;;;;;;8.60;100.00;101434.72;3056909;19;876;-48
2022/09/06 03:20:52;;;;;;;;;;;;;;;8.58;100.00;101434.78;3056854;19;998;-47
2022/09/06 03:21:54;;;;;;;;;;;;;;;8.58;100.00;101439.22;3056534;19;956;-47
2022/09/06 03:22:58;;;;;;;;;;;;;;;8.56;100.00;101435.78;3056793;19;980;-47
2022/09/06 03:24:00;;;;;;;;;;;;;;;8.56;100.00;101444.63;3056503;19;1039;-45
2022/09/06 03:25:05;;;;;;;;;;;;;;;8.55;100.00;101439.38;3055954;19;1858;-47
2022/09/06 03:26:07;;;;;;;;;;;;;;;8.53;100.00;101439.41;3056547;19;1019;-48
2022/09/06 03:27:11;;;;;;;;;;;;;;;8.50;100.00;101436.00;3056759;19;636;-48
2022/09/06 03:28:13;;;;;;;;;;;;;;;8.49;100.00;101431.59;3056550;19;1031;-47
2022/09/06 03:29:17;;;;;;;;;;;;;;;8.48;100.00;101443.16;3056877;19;1015;-47
2022/09/06 03:30:19;;;;;;;;;;;;;;;8.42;100.00;101438.94;3056435;19;1035;-45
2022/09/06 03:31:24;;;;;;;;;;;;;;;8.39;100.00;101444.38;3056539;19;975;-46
2022/09/06 03:32:26;;;;;;;;;;;;;;;8.35;100.00;101444.53;3056458;19;821;-49
2022/09/06 03:33:30;;;;;;;;;;;;;;;8.32;100.00;101437.56;3056665;19;960;-49
2022/09/06 03:34:32;;;;;;;;;;;;;;;8.28;100.00;101442.09;3056404;19;969;-48
2022/09/06 03:35:36;;;;;;;;;;;;;;;8.26;100.00;101438.63;3056802;19;1284;-48
2022/09/06 03:36:41;;;;;;;;;;;;;;;8.25;100.00;101444.84;3056401;19;1189;-46
2022/09/06 03:37:43;;;;;;;;;;;;;;;8.19;100.00;101446.88;3056885;19;885;-45
2022/09/06 03:38:48;;;;;;;;;;;;;;;8.14;100.00;101440.84;3056484;19;956;-49
2022/09/06 03:39:50;;;;;;;;;;;;;;;8.11;100.00;101448.94;3056850;19;971;-48
2022/09/06 03:40:54;;;;;;;;;;;;;;;8.08;100.00;101449.06;3056497;19;920;-45
2022/09/06 03:41:56;;;;;;;;;;;;;;;8.05;100.00;101447.38;3055713;19;1300;-47
2022/09/06 03:43:01;;;;;;;;;;;;;;;8.04;100.00;101448.31;3056201;19;988;-47
2022/09/06 03:44:03;;;;;;;;;;;;;;;8.02;100.00;101446.59;3056674;19;836;-48
2022/09/06 03:45:08;;;;;;;;;;;;;;;8.01;100.00;101443.09;3056300;19;1847;-50
2022/09/06 03:46:09;;;;;;;;;;;;;;;8.01;100.00;101443.09;3056641;19;957;-47
2022/09/06 03:47:14;;;;;;;;;;;;;;;8.04;100.00;101447.44;3056505;19;948;-48
2022/09/06 03:48:20;;;;;;;;;;;;;;;8.01;100.00;101436.91;3056480;19;972;-46
2022/09/06 03:49:25;;;;;;;;;;;;;;;8.00;100.00;101441.34;3055765;19;1408;-46
2022/09/06 03:50:27;;;;;;;;;;;;;;;8.00;100.00;101438.69;3055523;19;1095;-49
2022/09/06 03:51:31;;;;;;;;;;;;;;;8.01;100.00;101429.78;3056574;19;924;-45
2022/09/06 03:52:33;;;;;;;;;;;;;;;8.01;100.00;101431.59;3056699;19;936;-48
2022/09/06 03:53:38;;;;;;;;;;;;;;;8.02;100.00;101439.50;3056635;19;983;-45
2022/09/06 03:54:40;;;;;;;;;;;;;;;8.00;100.00;101436.03;3056491;19;885;-49
2022/09/06 03:55:48;;;;;;;;;;;;;;;7.99;100.00;101428.97;3056547;19;959;-47
2022/09/06 03:56:50;;;;;;;;;;;;;;;7.99;100.00;101428.97;3056379;19;948;-45
2022/09/06 03:57:54;;;;;;;;;;;;;;;7.99;100.00;101434.28;3057909;19;1198;-45
2022/09/06 03:58:56;;;;;;;;;;;;;;;7.99;100.00;101433.41;3058765;19;1048;-49
2022/09/06 04:00:00;;;;;;;;;;;;;;;7.99;100.00;101426.31;3061201;19;1611;-45
2022/09/06 04:01:12;;;;;;;;;;;;;;;8.03;100.00;101430.59;3059256;19;960;-47
2022/09/06 04:02:16;;;;;;;;;;;;;;;8.04;100.00;101427.03;3059630;19;959;-45
2022/09/06 04:03:18;;;;;;;;;;;;;;;8.08;100.00;101423.34;3059336;19;956;-48
2022/09/06 04:04:23;;;;;;;;;;;;;;;8.12;100.00;101418.75;3059526;19;952;-45
2022/09/06 04:05:25;;;;;;;;;;;;;;;8.15;100.00;101424.84;3059470;19;1846;-46
2022/09/06 04:06:30;;;;;;;;;;;;;;;8.20;100.00;101422.91;3059475;19;822;-47
2022/09/06 04:07:31;;;;;;;;;;;;;;;8.25;100.00;101417.41;3059265;19;877;-47
2022/09/06 04:08:36;;;;;;;;;;;;;;;8.27;100.00;101424.41;3059360;19;1764;-45
2022/09/06 04:09:38;;;;;;;;;;;;;;;8.34;100.00;101418.88;3059022;19;1204;-47
2022/09/06 04:10:43;;;;;;;;;;;;;;;8.39;100.00;101416.91;3059507;19;804;-49
2022/09/06 04:11:48;;;;;;;;;;;;;;;8.44;100.00;101421.16;3059295;19;909;-45
2022/09/06 04:12:50;;;;;;;;;;;;;;;8.48;100.00;101421.88;3058980;19;901;-46
2022/09/06 04:13:54;;;;;;;;;;;;;;;8.49;100.00;101420.97;3059096;19;1206;-47
2022/09/06 04:14:56;;;;;;;;;;;;;;;8.53;100.00;101426.13;3059331;19;967;-45
2022/09/06 04:16:01;;;;;;;;;;;;;;;8.78;100.00;101422.50;3059111;19;1661;-46
2022/09/06 04:17:02;;;;;;;;;;;;;;;9.05;100.00;101412.56;3060133;19;1758;-46
2022/09/06 04:18:07;;;;;;;;;;;;;;;9.28;100.00;101425.81;3057915;19;1561;-45
2022/09/06 04:19:10;;;;;;;;;;;;;;;9.24;100.00;101426.84;3058541;19;991;-47
2022/09/06 04:20:15;;;;;;;;;;;;;;;9.28;100.00;101425.81;3058297;19;963;-48
2022/09/06 04:21:17;;;;;;;;;;;;;;;9.55;100.00;101429.94;3060314;19;1126;-45
2022/09/06 04:22:21;;;;;;;;;;;;;;;9.96;100.00;101435.31;3058428;19;1586;-46
2022/09/06 04:23:24;;;;;;;;;;;;;;;10.25;100.00;101437.59;3060169;19;1181;-46
2022/09/06 04:24:28;;;;;;;;;;;;;;;10.27;100.00;101445.50;3058883;19;1455;-49
2022/09/06 04:25:30;;;;;;;;;;;;;;;10.07;100.00;101441.91;3058945;19;917;-46
2022/09/06 04:26:35;;;;;;;;;;;;;;;9.94;100.00;101446.03;3058726;19;912;-45
2022/09/06 04:27:37;;;;;;;;;;;;;;;9.85;100.00;101441.13;3058624;19;932;-48
2022/09/06 04:28:41;;;;;;;;;;;;;;;9.75;100.00;101443.31;3058734;19;940;-49
2022/09/06 04:29:43;;;;;;;;;;;;;;;9.68;100.00;101443.63;3058890;19;988;-48
2022/09/06 04:30:48;;;;;;;;;;;;;;;9.64;100.00;101440.25;3059458;19;1232;-48
2022/09/06 04:31:52;;;;;;;;;;;;;;;9.62;100.00;101446.56;3057824;19;1757;-48
2022/09/06 04:32:54;;;;;;;;;;;;;;;9.63;100.00;101449.19;3057919;19;935;-45
2022/09/06 04:33:59;;;;;;;;;;;;;;;9.66;100.00;101449.00;3058570;19;988;-49
2022/09/06 04:35:01;;;;;;;;;;;;;;;9.70;100.00;101450.63;3058768;19;887;-45
2022/09/06 04:36:06;;;;;;;;;;;;;;;9.76;100.00;101444.19;3058693;19;912;-48
2022/09/06 04:37:08;;;;;;;;;;;;;;;9.81;100.00;101444.84;3058645;19;905;-45
2022/09/06 04:38:13;;;;;;;;;;;;;;;9.84;100.00;101447.38;3059015;19;861;-51
2022/09/06 04:39:14;;;;;;;;;;;;;;;9.85;100.00;101450.91;3058795;19;1062;-47
2022/09/06 04:40:19;;;;;;;;;;;;;;;9.77;100.00;101439.72;3058793;19;981;-48
2022/09/06 04:41:21;;;;;;;;;;;;;;;9.84;100.00;101449.19;3058418;19;1150;-47
2022/09/06 04:42:25;;;;;;;;;;;;;;;9.81;100.00;101443.97;3058814;19;854;-46
2022/09/06 04:43:27;;;;;;;;;;;;;;;9.84;100.00;101446.50;3058865;19;936;-45
2022/09/06 04:44:31;;;;;;;;;;;;;;;9.85;100.00;101451.78;3060639;19;1587;-45
2022/09/06 04:45:33;;;;;;;;;;;;;;;9.88;100.00;101454.31;3059188;19;1777;-44
2022/09/06 04:46:38;;;;;;;;;;;;;;;9.87;100.00;101451.72;3058223;19;1873;-49
2022/09/06 04:47:39;;;;;;;;;;;;;;;9.91;100.00;101463.97;3058694;19;1067;-46
2022/09/06 04:48:44;;;;;;;;;;;;;;;9.91;100.00;101458.63;3059414;19;1751;-46
2022/09/06 04:49:47;;;;;;;;;;;;;;;9.92;100.00;101457.69;3059702;19;1155;-47
2022/09/06 04:50:51;;;;;;;;;;;;;;;9.92;100.00;101455.03;3059872;19;1739;-47
2022/09/06 04:51:53;;;;;;;;;;;;;;;9.88;100.00;101454.31;3059458;19;1491;-47
2022/09/06 04:52:57;;;;;;;;;;;;;;;9.90;100.00;101451.59;3058947;19;921;-46
2022/09/06 04:53:59;;;;;;;;;;;;;;;9.90;100.00;101457.75;3059042;19;956;-47
2022/09/06 04:55:04;;;;;;;;;;;;;;;9.86;100.00;101449.97;3059034;19;872;-46
2022/09/06 04:56:06;;;;;;;;;;;;;;;9.85;100.00;101453.59;3058925;19;955;-45
2022/09/06 04:57:11;;;;;;;;;;;;;;;9.79;100.00;101448.50;3057964;19;943;-47
2022/09/06 04:58:13;;;;;;;;;;;;;;;9.79;100.00;101453.81;3058612;19;956;-47
2022/09/06 04:59:17;;;;;;;;;;;;;;;9.75;100.00;101448.66;3059010;19;869;-48
2022/09/06 05:00:19;;;;;;;;;;;;;;;9.74;100.00;101448.72;3058991;19;1007;-45
2022/09/06 05:01:24;;;;;;;;;;;;;;;9.73;100.00;101447.84;3057776;19;1138;-46
2022/09/06 05:02:27;;;;;;;;;;;;;;;9.72;100.00;101446.09;3058286;19;1774;-49
2022/09/06 05:03:32;;;;;;;;;;;;;;;9.73;100.00;101450.50;3057439;19;1332;-53
2022/09/06 05:04:34;;;;;;;;;;;;;;;9.75;100.00;101445.97;3059088;19;1238;-49
2022/09/06 05:05:38;;;;;;;;;;;;;;;9.80;100.00;101443.09;3058120;19;1284;-46
2022/09/06 05:06:41;;;;;;;;;;;;;;;9.83;100.00;101444.78;3058257;19;1886;-50
2022/09/06 05:07:46;;;;;;;;;;;;;;;9.87;100.00;101446.38;3058615;19;1163;-51
2022/09/06 05:08:47;;;;;;;;;;;;;;;9.90;100.00;101432.94;3058213;19;1164;-47
2022/09/06 05:09:52;;;;;;;;;;;;;;;9.97;100.00;101442.38;3056596;19;1908;-52
2022/09/06 05:10:54;;;;;;;;;;;;;;;10.01;100.00;101439.53;3058164;19;1280;-49
2022/09/06 05:11:58;;;;;;;;;;;;;;;10.07;100.00;101441.03;3058536;19;1736;-51
2022/09/06 05:13:01;;;;;;;;;;;;;;;10.14;100.00;101445.19;3058365;19;1675;-48
2022/09/06 05:14:05;;;;;;;;;;;;;;;10.20;100.00;101442.25;3058441;19;1213;-48
2022/09/06 05:15:07;;;;;;;;;;;;;;;10.26;100.00;101443.81;3058301;19;1380;-46
2022/09/06 05:16:12;;;;;;;;;;;;;;;10.30;100.00;101440.91;3056063;19;1825;-45
2022/09/06 05:17:14;;;;;;;;;;;;;;;10.37;100.00;101445.06;3058633;19;1856;-45
2022/09/06 05:18:18;;;;;;;;;;;;;;;10.43;100.00;101435.88;3058783;19;1409;-45
2022/09/06 05:19:21;;;;;;;;;;;;;;;10.50;100.00;101436.47;3058564;19;1175;-45
2022/09/06 05:20:25;;;;;;;;;;;;;;;10.55;100.00;101439.78;3058380;19;1762;-47
2022/09/06 05:21:27;;;;;;;;;;;;;;;10.59;100.00;101447.59;3058303;19;2000;-47
2022/09/06 05:22:31;;;;;;;;;;;;;;;10.66;100.00;101446.34;3057719;19;1926;-47
2022/09/06 05:23:33;;;;;;;;;;;;;;;10.71;100.00;101447.03;3058026;19;1857;-44
2022/09/06 05:24:38;;;;;;;;;;;;;;;10.80;100.00;101435.03;3057562;19;1588;-46
2022/09/06 05:25:39;;;;;;;;;;;;;;;10.86;100.00;101434.75;3057473;19;1838;-47
2022/09/06 05:26:44;;;;;;;;;;;;;;;10.93;100.00;101433.50;3056081;19;2359;-45
2022/09/06 05:27:48;;;;;;;;;;;;;;;11.01;100.00;101438.47;3056749;19;1548;-48
2022/09/06 05:28:53;;;;;;;;;;;;;;;11.04;100.00;101439.19;3058100;19;1303;-47
2022/09/06 05:29:55;;;;;;;;;;;;;;;11.14;100.00;101445.81;3058156;19;1565;-45
2022/09/06 05:31:15;;;;;;;;;;;;;;;11.23;100.00;101439.16;3056889;19;1671;-47
2022/09/06 05:32:17;;;;;;;;;;;;;;;11.35;100.00;101448.41;3057686;19;1061;-45
2022/09/06 05:33:24;;;;;;;;;;;;;;;11.46;100.00;101451.41;3057424;19;1701;-44
2022/09/06 05:34:26;;;;;;;;;;;;;;;11.56;100.00;101447.31;3057213;19;1467;-47
2022/09/06 05:35:31;;;;;;;;;;;;;;;11.66;100.00;101453.94;3057039;19;1047;-47
2022/09/06 05:36:32;;;;;;;;;;;;;;;11.76;100.00;101449.88;3058737;19;1515;-46
2022/09/06 05:37:37;;;;;;;;;;;;;;;11.84;100.00;101453.00;3057089;19;964;-47
2022/09/06 05:38:41;;;;;;;;;;;;;;;11.93;100.00;101450.84;3058099;19;927;-49
2022/09/06 05:39:44;;;;;;;;;;;;;;;12.03;100.00;101460.09;3058296;19;1595;-47